sensor_id;sensor_type;location;lat;lon;timestamp;P1;durP1;ratioP1;P2;durP2;ratioP2
62582;SDS011;48641;51.676;5.808;2023-12-04T00:00:36;7.75;;;3.28;;
62582;SDS011;48641;51.676;5.808;2023-12-04T00:03:02;7.97;;;2.92;;
62582;SDS011;48641;51.676;5.808;2023-12-04T00:05:27;7.75;;;2.83;;
62582;SDS011;48641;51.676;5.808;2023-12-04T00:07:53;6.07;;;2.90;;
62582;SDS011;48641;51.676;5.808;2023-12-04T00:10:19;7.82;;;3.13;;
62582;SDS011;48641;51.676;5.808;2023-12-04T00:12:45;8.57;;;3.20;;
62582;SDS011;48641;51.676;5.808;2023-12-04T00:15:10;7.13;;;2.90;;
62582;SDS011;48641;51.676;5.808;2023-12-04T00:17:36;7.25;;;2.53;;
62582;SDS011;48641;51.676;5.808;2023-12-04T00:20:05;8.85;;;3.38;;
62582;SDS011;48641;51.676;5.808;2023-12-04T00:22:31;7.82;;;2.95;;
62582;SDS011;48641;51.676;5.808;2023-12-04T00:24:57;7.05;;;2.92;;
62582;SDS011;48641;51.676;5.808;2023-12-04T00:27:23;9.07;;;3.65;;
62582;SDS011;48641;51.676;5.808;2023-12-04T00:29:52;8.48;;;3.42;;
62582;SDS011;48641;51.676;5.808;2023-12-04T00:32:17;8.23;;;3.10;;
62582;SDS011;48641;51.676;5.808;2023-12-04T00:34:43;8.00;;;3.20;;
62582;SDS011;48641;51.676;5.808;2023-12-04T00:37:09;8.38;;;3.10;;
62582;SDS011;48641;51.676;5.808;2023-12-04T00:39:34;7.57;;;3.00;;
62582;SDS011;48641;51.676;5.808;2023-12-04T00:42:00;8.15;;;2.83;;
62582;SDS011;48641;51.676;5.808;2023-12-04T00:44:25;8.02;;;3.15;;
62582;SDS011;48641;51.676;5.808;2023-12-04T00:46:51;8.15;;;3.25;;
62582;SDS011;48641;51.676;5.808;2023-12-04T00:49:16;8.82;;;3.22;;
62582;SDS011;48641;51.676;5.808;2023-12-04T00:51:42;7.82;;;3.10;;
62582;SDS011;48641;51.676;5.808;2023-12-04T00:54:07;8.27;;;3.03;;
62582;SDS011;48641;51.676;5.808;2023-12-04T00:56:33;7.18;;;2.75;;
62582;SDS011;48641;51.676;5.808;2023-12-04T00:58:59;8.02;;;3.45;;
62582;SDS011;48641;51.676;5.808;2023-12-04T01:01:24;8.32;;;3.33;;
62582;SDS011;48641;51.676;5.808;2023-12-04T01:03:50;7.97;;;3.08;;
62582;SDS011;48641;51.676;5.808;2023-12-04T01:06:22;7.05;;;3.10;;
62582;SDS011;48641;51.676;5.808;2023-12-04T01:08:48;6.97;;;2.92;;
62582;SDS011;48641;51.676;5.808;2023-12-04T01:11:15;8.07;;;3.38;;
62582;SDS011;48641;51.676;5.808;2023-12-04T01:13:41;8.55;;;3.72;;
62582;SDS011;48641;51.676;5.808;2023-12-04T01:16:07;7.72;;;2.95;;
62582;SDS011;48641;51.676;5.808;2023-12-04T01:18:34;7.85;;;3.38;;
62582;SDS011;48641;51.676;5.808;2023-12-04T01:20:59;7.78;;;3.17;;
62582;SDS011;48641;51.676;5.808;2023-12-04T01:23:25;8.45;;;3.22;;
62582;SDS011;48641;51.676;5.808;2023-12-04T01:25:50;7.68;;;2.97;;
62582;SDS011;48641;51.676;5.808;2023-12-04T01:28:16;7.55;;;3.05;;
62582;SDS011;48641;51.676;5.808;2023-12-04T01:30:42;8.38;;;3.15;;
62582;SDS011;48641;51.676;5.808;2023-12-04T01:33:07;7.30;;;3.25;;
62582;SDS011;48641;51.676;5.808;2023-12-04T01:35:33;8.68;;;3.55;;
62582;SDS011;48641;51.676;5.808;2023-12-04T01:37:59;7.10;;;2.95;;
62582;SDS011;48641;51.676;5.808;2023-12-04T01:40:25;8.25;;;3.17;;
62582;SDS011;48641;51.676;5.808;2023-12-04T01:42:51;8.00;;;3.00;;
62582;SDS011;48641;51.676;5.808;2023-12-04T01:45:17;7.10;;;2.78;;
62582;SDS011;48641;51.676;5.808;2023-12-04T01:47:43;7.85;;;2.90;;
62582;SDS011;48641;51.676;5.808;2023-12-04T01:50:09;7.72;;;2.97;;
62582;SDS011;48641;51.676;5.808;2023-12-04T01:52:35;7.80;;;3.25;;
62582;SDS011;48641;51.676;5.808;2023-12-04T01:55:02;7.03;;;2.80;;
62582;SDS011;48641;51.676;5.808;2023-12-04T01:57:29;8.93;;;2.95;;
62582;SDS011;48641;51.676;5.808;2023-12-04T01:59:55;8.90;;;3.45;;
62582;SDS011;48641;51.676;5.808;2023-12-04T02:02:20;7.47;;;3.05;;
62582;SDS011;48641;51.676;5.808;2023-12-04T02:04:46;7.07;;;2.70;;
62582;SDS011;48641;51.676;5.808;2023-12-04T02:07:12;7.70;;;3.03;;
62582;SDS011;48641;51.676;5.808;2023-12-04T02:09:37;8.05;;;2.78;;
62582;SDS011;48641;51.676;5.808;2023-12-04T02:12:03;7.70;;;3.30;;
62582;SDS011;48641;51.676;5.808;2023-12-04T02:14:29;8.52;;;3.25;;
62582;SDS011;48641;51.676;5.808;2023-12-04T02:16:55;8.20;;;2.90;;
62582;SDS011;48641;51.676;5.808;2023-12-04T02:19:21;6.82;;;2.70;;
62582;SDS011;48641;51.676;5.808;2023-12-04T02:21:48;7.40;;;2.80;;
62582;SDS011;48641;51.676;5.808;2023-12-04T02:24:13;7.82;;;3.08;;
62582;SDS011;48641;51.676;5.808;2023-12-04T02:26:41;7.00;;;2.75;;
62582;SDS011;48641;51.676;5.808;2023-12-04T02:29:21;7.65;;;3.30;;
62582;SDS011;48641;51.676;5.808;2023-12-04T02:31:54;7.38;;;2.80;;
62582;SDS011;48641;51.676;5.808;2023-12-04T02:34:21;6.93;;;2.95;;
62582;SDS011;48641;51.676;5.808;2023-12-04T02:36:48;6.85;;;2.95;;
62582;SDS011;48641;51.676;5.808;2023-12-04T02:39:16;7.65;;;2.90;;
62582;SDS011;48641;51.676;5.808;2023-12-04T02:41:42;7.15;;;2.88;;
62582;SDS011;48641;51.676;5.808;2023-12-04T02:44:08;7.18;;;2.83;;
62582;SDS011;48641;51.676;5.808;2023-12-04T02:46:33;6.15;;;2.50;;
62582;SDS011;48641;51.676;5.808;2023-12-04T02:48:59;6.65;;;2.80;;
62582;SDS011;48641;51.676;5.808;2023-12-04T02:51:24;6.60;;;2.70;;
62582;SDS011;48641;51.676;5.808;2023-12-04T02:53:51;8.20;;;2.75;;
62582;SDS011;48641;51.676;5.808;2023-12-04T02:56:17;6.40;;;2.50;;
62582;SDS011;48641;51.676;5.808;2023-12-04T02:58:42;7.75;;;2.72;;
62582;SDS011;48641;51.676;5.808;2023-12-04T03:01:08;7.68;;;2.75;;
62582;SDS011;48641;51.676;5.808;2023-12-04T03:03:34;6.22;;;2.53;;
62582;SDS011;48641;51.676;5.808;2023-12-04T03:05:59;6.78;;;2.85;;
62582;SDS011;48641;51.676;5.808;2023-12-04T03:08:25;6.65;;;2.78;;
62582;SDS011;48641;51.676;5.808;2023-12-04T03:10:51;7.35;;;2.70;;
62582;SDS011;48641;51.676;5.808;2023-12-04T03:13:16;6.90;;;2.58;;
62582;SDS011;48641;51.676;5.808;2023-12-04T03:15:42;6.38;;;2.33;;
62582;SDS011;48641;51.676;5.808;2023-12-04T03:18:07;6.05;;;2.50;;
62582;SDS011;48641;51.676;5.808;2023-12-04T03:20:33;6.03;;;2.70;;
62582;SDS011;48641;51.676;5.808;2023-12-04T03:22:58;7.25;;;2.60;;
62582;SDS011;48641;51.676;5.808;2023-12-04T03:25:24;6.95;;;2.65;;
62582;SDS011;48641;51.676;5.808;2023-12-04T03:27:49;7.20;;;2.85;;
62582;SDS011;48641;51.676;5.808;2023-12-04T03:30:15;7.32;;;2.40;;
62582;SDS011;48641;51.676;5.808;2023-12-04T03:32:41;6.53;;;2.60;;
62582;SDS011;48641;51.676;5.808;2023-12-04T03:35:06;7.40;;;3.03;;
62582;SDS011;48641;51.676;5.808;2023-12-04T03:37:32;7.75;;;2.67;;
62582;SDS011;48641;51.676;5.808;2023-12-04T03:39:59;7.28;;;2.80;;
62582;SDS011;48641;51.676;5.808;2023-12-04T03:42:24;6.80;;;2.63;;
62582;SDS011;48641;51.676;5.808;2023-12-04T03:44:50;6.22;;;2.20;;
62582;SDS011;48641;51.676;5.808;2023-12-04T03:47:15;7.63;;;3.15;;
62582;SDS011;48641;51.676;5.808;2023-12-04T03:49:41;6.65;;;2.50;;
62582;SDS011;48641;51.676;5.808;2023-12-04T03:52:07;6.38;;;2.50;;
62582;SDS011;48641;51.676;5.808;2023-12-04T03:54:32;6.80;;;2.60;;
62582;SDS011;48641;51.676;5.808;2023-12-04T03:56:58;7.88;;;2.65;;
62582;SDS011;48641;51.676;5.808;2023-12-04T03:59:23;6.25;;;2.53;;
62582;SDS011;48641;51.676;5.808;2023-12-04T04:01:49;6.60;;;2.47;;
62582;SDS011;48641;51.676;5.808;2023-12-04T04:04:14;6.30;;;2.55;;
62582;SDS011;48641;51.676;5.808;2023-12-04T04:06:40;6.15;;;2.42;;
62582;SDS011;48641;51.676;5.808;2023-12-04T04:09:05;5.85;;;2.38;;
62582;SDS011;48641;51.676;5.808;2023-12-04T04:11:31;5.30;;;2.08;;
62582;SDS011;48641;51.676;5.808;2023-12-04T04:13:57;6.95;;;2.65;;
62582;SDS011;48641;51.676;5.808;2023-12-04T04:16:22;6.85;;;2.47;;
62582;SDS011;48641;51.676;5.808;2023-12-04T04:18:48;6.28;;;2.47;;
62582;SDS011;48641;51.676;5.808;2023-12-04T04:21:13;6.32;;;2.15;;
62582;SDS011;48641;51.676;5.808;2023-12-04T04:23:39;6.45;;;2.20;;
62582;SDS011;48641;51.676;5.808;2023-12-04T04:26:05;5.70;;;2.40;;
62582;SDS011;48641;51.676;5.808;2023-12-04T04:28:30;5.88;;;2.38;;
62582;SDS011;48641;51.676;5.808;2023-12-04T04:30:56;7.38;;;2.35;;
62582;SDS011;48641;51.676;5.808;2023-12-04T04:33:22;6.13;;;2.33;;
62582;SDS011;48641;51.676;5.808;2023-12-04T04:35:47;6.53;;;2.35;;
62582;SDS011;48641;51.676;5.808;2023-12-04T04:38:13;6.18;;;2.17;;
62582;SDS011;48641;51.676;5.808;2023-12-04T04:40:38;5.22;;;2.15;;
62582;SDS011;48641;51.676;5.808;2023-12-04T04:43:07;6.60;;;2.43;;
62582;SDS011;48641;51.676;5.808;2023-12-04T04:45:33;6.05;;;2.13;;
62582;SDS011;48641;51.676;5.808;2023-12-04T04:47:58;5.80;;;2.38;;
62582;SDS011;48641;51.676;5.808;2023-12-04T04:50:24;5.57;;;2.25;;
62582;SDS011;48641;51.676;5.808;2023-12-04T04:52:50;7.10;;;2.40;;
62582;SDS011;48641;51.676;5.808;2023-12-04T04:55:15;6.38;;;2.20;;
62582;SDS011;48641;51.676;5.808;2023-12-04T04:57:41;5.68;;;2.30;;
62582;SDS011;48641;51.676;5.808;2023-12-04T05:00:06;4.97;;;2.28;;
62582;SDS011;48641;51.676;5.808;2023-12-04T05:02:32;5.38;;;2.40;;
62582;SDS011;48641;51.676;5.808;2023-12-04T05:05:00;6.47;;;2.42;;
62582;SDS011;48641;51.676;5.808;2023-12-04T05:07:27;5.60;;;2.20;;
62582;SDS011;48641;51.676;5.808;2023-12-04T05:09:53;6.97;;;2.70;;
62582;SDS011;48641;51.676;5.808;2023-12-04T05:12:19;6.32;;;2.55;;
62582;SDS011;48641;51.676;5.808;2023-12-04T05:14:44;5.47;;;2.17;;
62582;SDS011;48641;51.676;5.808;2023-12-04T05:17:10;5.88;;;2.20;;
62582;SDS011;48641;51.676;5.808;2023-12-04T05:19:35;6.10;;;2.35;;
62582;SDS011;48641;51.676;5.808;2023-12-04T05:22:01;5.93;;;2.45;;
62582;SDS011;48641;51.676;5.808;2023-12-04T05:24:27;7.07;;;2.50;;
62582;SDS011;48641;51.676;5.808;2023-12-04T05:26:52;6.57;;;2.20;;
62582;SDS011;48641;51.676;5.808;2023-12-04T05:29:18;5.50;;;2.30;;
62582;SDS011;48641;51.676;5.808;2023-12-04T05:31:44;5.15;;;2.05;;
62582;SDS011;48641;51.676;5.808;2023-12-04T05:34:09;5.85;;;2.33;;
62582;SDS011;48641;51.676;5.808;2023-12-04T05:36:35;6.10;;;2.20;;
62582;SDS011;48641;51.676;5.808;2023-12-04T05:39:00;5.50;;;2.40;;
62582;SDS011;48641;51.676;5.808;2023-12-04T05:41:26;4.90;;;1.85;;
62582;SDS011;48641;51.676;5.808;2023-12-04T05:43:52;5.20;;;2.20;;
62582;SDS011;48641;51.676;5.808;2023-12-04T05:46:18;5.85;;;2.10;;
62582;SDS011;48641;51.676;5.808;2023-12-04T05:48:44;5.65;;;2.35;;
62582;SDS011;48641;51.676;5.808;2023-12-04T05:51:09;6.18;;;2.15;;
62582;SDS011;48641;51.676;5.808;2023-12-04T05:53:36;6.03;;;2.30;;
62582;SDS011;48641;51.676;5.808;2023-12-04T05:56:02;6.65;;;2.20;;
62582;SDS011;48641;51.676;5.808;2023-12-04T05:58:29;5.15;;;2.03;;
62582;SDS011;48641;51.676;5.808;2023-12-04T06:00:55;5.28;;;2.28;;
62582;SDS011;48641;51.676;5.808;2023-12-04T06:03:20;5.50;;;2.10;;
62582;SDS011;48641;51.676;5.808;2023-12-04T06:05:46;5.25;;;1.98;;
62582;SDS011;48641;51.676;5.808;2023-12-04T06:08:12;6.03;;;2.20;;
62582;SDS011;48641;51.676;5.808;2023-12-04T06:10:37;5.90;;;2.30;;
62582;SDS011;48641;51.676;5.808;2023-12-04T06:13:03;6.20;;;2.17;;
62582;SDS011;48641;51.676;5.808;2023-12-04T06:15:29;5.75;;;2.15;;
62582;SDS011;48641;51.676;5.808;2023-12-04T06:17:54;5.35;;;2.30;;
62582;SDS011;48641;51.676;5.808;2023-12-04T06:20:20;5.45;;;2.00;;
62582;SDS011;48641;51.676;5.808;2023-12-04T06:22:45;5.63;;;2.17;;
62582;SDS011;48641;51.676;5.808;2023-12-04T06:25:11;5.60;;;2.20;;
62582;SDS011;48641;51.676;5.808;2023-12-04T06:27:37;4.90;;;2.00;;
62582;SDS011;48641;51.676;5.808;2023-12-04T06:30:04;5.38;;;1.80;;
62582;SDS011;48641;51.676;5.808;2023-12-04T06:32:31;5.28;;;1.90;;
62582;SDS011;48641;51.676;5.808;2023-12-04T06:34:57;6.50;;;2.13;;
62582;SDS011;48641;51.676;5.808;2023-12-04T06:37:22;4.82;;;1.73;;
62582;SDS011;48641;51.676;5.808;2023-12-04T06:39:48;4.63;;;1.73;;
62582;SDS011;48641;51.676;5.808;2023-12-04T06:42:17;5.50;;;2.22;;
62582;SDS011;48641;51.676;5.808;2023-12-04T06:44:43;4.70;;;1.95;;
62582;SDS011;48641;51.676;5.808;2023-12-04T06:47:09;5.55;;;2.20;;
62582;SDS011;48641;51.676;5.808;2023-12-04T06:49:36;5.43;;;2.22;;
62582;SDS011;48641;51.676;5.808;2023-12-04T06:52:02;8.10;;;2.13;;
62582;SDS011;48641;51.676;5.808;2023-12-04T06:54:28;8.55;;;2.35;;
62582;SDS011;48641;51.676;5.808;2023-12-04T06:56:54;8.02;;;2.40;;
62582;SDS011;48641;51.676;5.808;2023-12-04T06:59:20;6.88;;;2.17;;
62582;SDS011;48641;51.676;5.808;2023-12-04T07:01:46;7.18;;;2.30;;
62582;SDS011;48641;51.676;5.808;2023-12-04T07:04:11;6.80;;;2.50;;
62582;SDS011;48641;51.676;5.808;2023-12-04T07:06:38;9.90;;;2.22;;
62582;SDS011;48641;51.676;5.808;2023-12-04T07:09:04;6.72;;;2.22;;
62582;SDS011;48641;51.676;5.808;2023-12-04T07:11:33;7.65;;;2.47;;
62582;SDS011;48641;51.676;5.808;2023-12-04T07:13:59;7.38;;;2.30;;
62582;SDS011;48641;51.676;5.808;2023-12-04T07:16:24;6.32;;;2.13;;
62582;SDS011;48641;51.676;5.808;2023-12-04T07:18:50;8.30;;;1.92;;
62582;SDS011;48641;51.676;5.808;2023-12-04T07:21:15;6.35;;;2.35;;
62582;SDS011;48641;51.676;5.808;2023-12-04T07:23:41;5.93;;;2.00;;
62582;SDS011;48641;51.676;5.808;2023-12-04T07:26:06;6.68;;;2.08;;
62582;SDS011;48641;51.676;5.808;2023-12-04T07:28:33;6.55;;;2.00;;
62582;SDS011;48641;51.676;5.808;2023-12-04T07:30:59;6.30;;;2.40;;
62582;SDS011;48641;51.676;5.808;2023-12-04T07:33:26;5.65;;;2.08;;
62582;SDS011;48641;51.676;5.808;2023-12-04T07:35:52;5.68;;;2.20;;
62582;SDS011;48641;51.676;5.808;2023-12-04T07:38:17;6.32;;;1.80;;
62582;SDS011;48641;51.676;5.808;2023-12-04T07:40:44;5.57;;;1.88;;
62582;SDS011;48641;51.676;5.808;2023-12-04T11:59:37;5.82;;;2.20;;
62582;SDS011;48641;51.676;5.808;2023-12-04T12:02:03;4.35;;;1.77;;
62582;SDS011;48641;51.676;5.808;2023-12-04T12:04:33;4.03;;;1.88;;
62582;SDS011;48641;51.676;5.808;2023-12-04T12:06:58;5.28;;;1.98;;
62582;SDS011;48641;51.676;5.808;2023-12-04T12:09:27;4.80;;;1.77;;
62582;SDS011;48641;51.676;5.808;2023-12-04T12:11:53;4.65;;;1.88;;
62582;SDS011;48641;51.676;5.808;2023-12-04T12:14:20;5.07;;;2.00;;
62582;SDS011;48641;51.676;5.808;2023-12-04T12:16:46;5.03;;;1.90;;
62582;SDS011;48641;51.676;5.808;2023-12-04T12:19:12;4.45;;;1.77;;
62582;SDS011;48641;51.676;5.808;2023-12-04T12:21:38;4.20;;;1.85;;
62582;SDS011;48641;51.676;5.808;2023-12-04T12:24:05;5.13;;;1.83;;
62582;SDS011;48641;51.676;5.808;2023-12-04T12:26:31;4.90;;;2.03;;
62582;SDS011;48641;51.676;5.808;2023-12-04T12:28:57;5.47;;;2.13;;
62582;SDS011;48641;51.676;5.808;2023-12-04T12:31:23;5.03;;;1.90;;
62582;SDS011;48641;51.676;5.808;2023-12-04T12:33:48;5.18;;;1.95;;
62582;SDS011;48641;51.676;5.808;2023-12-04T12:36:14;5.60;;;1.98;;
62582;SDS011;48641;51.676;5.808;2023-12-04T12:38:43;5.82;;;2.08;;
62582;SDS011;48641;51.676;5.808;2023-12-04T12:41:15;5.35;;;1.95;;
62582;SDS011;48641;51.676;5.808;2023-12-04T12:43:42;5.50;;;2.22;;
62582;SDS011;48641;51.676;5.808;2023-12-04T12:46:08;5.18;;;2.00;;
62582;SDS011;48641;51.676;5.808;2023-12-04T12:48:35;6.13;;;2.42;;
62582;SDS011;48641;51.676;5.808;2023-12-04T12:51:02;6.97;;;2.03;;
62582;SDS011;48641;51.676;5.808;2023-12-04T12:53:27;4.38;;;1.70;;
62582;SDS011;48641;51.676;5.808;2023-12-04T12:55:53;4.82;;;1.80;;
62582;SDS011;48641;51.676;5.808;2023-12-04T12:58:19;4.72;;;1.77;;
62582;SDS011;48641;51.676;5.808;2023-12-04T13:00:46;4.32;;;1.80;;
62582;SDS011;48641;51.676;5.808;2023-12-04T13:03:18;4.57;;;1.95;;
62582;SDS011;48641;51.676;5.808;2023-12-04T13:05:44;5.40;;;1.90;;
62582;SDS011;48641;51.676;5.808;2023-12-04T13:08:11;5.35;;;2.08;;
62582;SDS011;48641;51.676;5.808;2023-12-04T13:10:37;4.63;;;1.73;;
62582;SDS011;48641;51.676;5.808;2023-12-04T13:13:03;4.97;;;1.80;;
62582;SDS011;48641;51.676;5.808;2023-12-04T13:15:29;3.95;;;1.58;;
62582;SDS011;48641;51.676;5.808;2023-12-04T13:17:54;4.95;;;1.88;;
62582;SDS011;48641;51.676;5.808;2023-12-04T13:20:21;4.78;;;1.83;;
62582;SDS011;48641;51.676;5.808;2023-12-04T13:22:48;3.95;;;1.88;;
62582;SDS011;48641;51.676;5.808;2023-12-04T13:25:14;4.35;;;1.60;;
62582;SDS011;48641;51.676;5.808;2023-12-04T13:27:40;5.28;;;2.00;;
62582;SDS011;48641;51.676;5.808;2023-12-04T13:30:06;6.15;;;1.92;;
62582;SDS011;48641;51.676;5.808;2023-12-04T13:32:36;4.28;;;1.73;;
62582;SDS011;48641;51.676;5.808;2023-12-04T13:35:05;4.60;;;1.63;;
62582;SDS011;48641;51.676;5.808;2023-12-04T13:39:58;4.80;;;1.75;;
62582;SDS011;48641;51.676;5.808;2023-12-04T13:42:26;3.67;;;1.50;;
62582;SDS011;48641;51.676;5.808;2023-12-04T13:45:11;3.75;;;1.70;;
62582;SDS011;48641;51.676;5.808;2023-12-04T13:47:39;6.70;;;2.07;;
62582;SDS011;48641;51.676;5.808;2023-12-04T13:50:05;4.97;;;1.83;;
62582;SDS011;48641;51.676;5.808;2023-12-04T13:52:34;5.75;;;1.67;;
62582;SDS011;48641;51.676;5.808;2023-12-04T13:55:00;5.32;;;1.77;;
62582;SDS011;48641;51.676;5.808;2023-12-04T13:57:25;4.53;;;1.90;;
62582;SDS011;48641;51.676;5.808;2023-12-04T13:59:53;6.25;;;1.88;;
62582;SDS011;48641;51.676;5.808;2023-12-04T14:02:22;5.22;;;1.90;;
62582;SDS011;48641;51.676;5.808;2023-12-04T14:04:47;4.55;;;1.92;;
62582;SDS011;48641;51.676;5.808;2023-12-04T14:07:13;4.47;;;1.88;;
62582;SDS011;48641;51.676;5.808;2023-12-04T14:09:40;3.72;;;1.63;;
62582;SDS011;48641;51.676;5.808;2023-12-04T14:12:07;3.92;;;1.67;;
62582;SDS011;48641;51.676;5.808;2023-12-04T14:14:33;4.90;;;1.70;;
62582;SDS011;48641;51.676;5.808;2023-12-04T14:16:59;4.80;;;1.60;;
62582;SDS011;48641;51.676;5.808;2023-12-04T14:19:28;5.82;;;2.13;;
62582;SDS011;48641;51.676;5.808;2023-12-04T14:21:54;4.75;;;1.80;;
62582;SDS011;48641;51.676;5.808;2023-12-04T14:24:19;4.68;;;1.75;;
62582;SDS011;48641;51.676;5.808;2023-12-04T14:26:46;5.45;;;1.80;;
62582;SDS011;48641;51.676;5.808;2023-12-04T14:29:12;4.97;;;1.98;;
62582;SDS011;48641;51.676;5.808;2023-12-04T14:31:38;4.57;;;1.80;;
62582;SDS011;48641;51.676;5.808;2023-12-04T14:34:04;5.53;;;1.52;;
62582;SDS011;48641;51.676;5.808;2023-12-04T14:36:30;5.15;;;1.70;;
62582;SDS011;48641;51.676;5.808;2023-12-04T14:38:57;4.13;;;1.50;;
62582;SDS011;48641;51.676;5.808;2023-12-04T14:41:23;4.53;;;1.63;;
62582;SDS011;48641;51.676;5.808;2023-12-04T14:43:48;6.57;;;2.05;;
62582;SDS011;48641;51.676;5.808;2023-12-04T14:46:14;5.13;;;1.80;;
62582;SDS011;48641;51.676;5.808;2023-12-04T14:48:39;6.50;;;2.72;;
62582;SDS011;48641;51.676;5.808;2023-12-04T14:51:13;5.47;;;1.90;;
62582;SDS011;48641;51.676;5.808;2023-12-04T14:53:39;7.78;;;3.75;;
62582;SDS011;48641;51.676;5.808;2023-12-04T14:56:08;5.18;;;1.98;;
62582;SDS011;48641;51.676;5.808;2023-12-04T14:58:34;7.15;;;2.22;;
62582;SDS011;48641;51.676;5.808;2023-12-04T15:01:09;9.25;;;2.83;;
62582;SDS011;48641;51.676;5.808;2023-12-04T15:03:54;8.48;;;3.40;;
62582;SDS011;48641;51.676;5.808;2023-12-04T15:06:38;7.07;;;2.65;;
62582;SDS011;48641;51.676;5.808;2023-12-04T15:09:04;6.47;;;2.70;;
62582;SDS011;48641;51.676;5.808;2023-12-04T15:11:48;8.73;;;2.90;;
62582;SDS011;48641;51.676;5.808;2023-12-04T15:14:33;12.80;;;2.75;;
62582;SDS011;48641;51.676;5.808;2023-12-04T15:17:24;8.40;;;2.72;;
62582;SDS011;48641;51.676;5.808;2023-12-04T15:19:56;10.10;;;2.80;;
62582;SDS011;48641;51.676;5.808;2023-12-04T15:22:24;10.23;;;2.60;;
62582;SDS011;48641;51.676;5.808;2023-12-04T15:24:50;13.25;;;2.95;;
62582;SDS011;48641;51.676;5.808;2023-12-04T15:27:16;9.73;;;3.88;;
62582;SDS011;48641;51.676;5.808;2023-12-04T15:29:42;10.65;;;3.10;;
62582;SDS011;48641;51.676;5.808;2023-12-04T15:32:08;12.55;;;3.10;;
62582;SDS011;48641;51.676;5.808;2023-12-04T15:34:34;7.82;;;2.90;;
62582;SDS011;48641;51.676;5.808;2023-12-04T15:36:59;7.93;;;2.70;;
62582;SDS011;48641;51.676;5.808;2023-12-04T15:39:26;9.15;;;2.95;;
62582;SDS011;48641;51.676;5.808;2023-12-04T15:41:51;8.82;;;2.90;;
62582;SDS011;48641;51.676;5.808;2023-12-04T15:44:17;11.27;;;3.42;;
62582;SDS011;48641;51.676;5.808;2023-12-04T15:46:42;8.85;;;3.03;;
62582;SDS011;48641;51.676;5.808;2023-12-04T15:49:08;9.85;;;3.20;;
62582;SDS011;48641;51.676;5.808;2023-12-04T15:51:33;8.45;;;2.70;;
62582;SDS011;48641;51.676;5.808;2023-12-04T15:53:59;9.25;;;2.80;;
62582;SDS011;48641;51.676;5.808;2023-12-04T15:56:25;7.93;;;2.55;;
62582;SDS011;48641;51.676;5.808;2023-12-04T15:58:50;7.85;;;2.70;;
62582;SDS011;48641;51.676;5.808;2023-12-04T16:01:16;8.82;;;3.05;;
62582;SDS011;48641;51.676;5.808;2023-12-04T16:03:41;8.77;;;3.28;;
62582;SDS011;48641;51.676;5.808;2023-12-04T16:06:08;8.50;;;2.80;;
62582;SDS011;48641;51.676;5.808;2023-12-04T16:08:34;14.25;;;3.78;;
62582;SDS011;48641;51.676;5.808;2023-12-04T16:11:00;10.75;;;3.15;;
62582;SDS011;48641;51.676;5.808;2023-12-04T16:13:25;10.15;;;3.55;;
62582;SDS011;48641;51.676;5.808;2023-12-04T16:15:51;9.43;;;2.95;;
62582;SDS011;48641;51.676;5.808;2023-12-04T16:18:17;8.20;;;2.80;;
62582;SDS011;48641;51.676;5.808;2023-12-04T16:20:42;11.05;;;3.47;;
62582;SDS011;48641;51.676;5.808;2023-12-04T16:23:11;8.88;;;2.70;;
62582;SDS011;48641;51.676;5.808;2023-12-04T16:25:37;12.43;;;3.80;;
62582;SDS011;48641;51.676;5.808;2023-12-04T16:28:03;7.75;;;3.08;;
62582;SDS011;48641;51.676;5.808;2023-12-04T16:30:29;8.23;;;3.15;;
62582;SDS011;48641;51.676;5.808;2023-12-04T16:32:55;9.60;;;2.78;;
62582;SDS011;48641;51.676;5.808;2023-12-04T16:35:21;8.20;;;2.90;;
62582;SDS011;48641;51.676;5.808;2023-12-04T16:37:46;8.98;;;2.90;;
62582;SDS011;48641;51.676;5.808;2023-12-04T16:40:12;11.48;;;3.55;;
62582;SDS011;48641;51.676;5.808;2023-12-04T16:42:39;14.95;;;6.32;;
62582;SDS011;48641;51.676;5.808;2023-12-04T16:45:08;10.52;;;3.75;;
62582;SDS011;48641;51.676;5.808;2023-12-04T16:47:34;13.60;;;3.88;;
62582;SDS011;48641;51.676;5.808;2023-12-04T16:49:59;9.32;;;3.35;;
62582;SDS011;48641;51.676;5.808;2023-12-04T16:52:25;11.02;;;3.70;;
62582;SDS011;48641;51.676;5.808;2023-12-04T16:54:51;9.38;;;3.83;;
62582;SDS011;48641;51.676;5.808;2023-12-04T16:57:17;9.93;;;3.33;;
62582;SDS011;48641;51.676;5.808;2023-12-04T16:59:43;9.90;;;3.83;;
62582;SDS011;48641;51.676;5.808;2023-12-04T17:02:08;9.55;;;3.70;;
62582;SDS011;48641;51.676;5.808;2023-12-04T17:04:34;8.90;;;3.47;;
62582;SDS011;48641;51.676;5.808;2023-12-04T17:06:59;11.82;;;2.90;;
62582;SDS011;48641;51.676;5.808;2023-12-04T17:09:25;8.82;;;3.30;;
62582;SDS011;48641;51.676;5.808;2023-12-04T17:11:51;7.88;;;3.10;;
62582;SDS011;48641;51.676;5.808;2023-12-04T17:14:17;9.10;;;3.22;;
62582;SDS011;48641;51.676;5.808;2023-12-04T17:16:43;7.47;;;2.95;;
62582;SDS011;48641;51.676;5.808;2023-12-04T17:19:08;7.20;;;3.05;;
62582;SDS011;48641;51.676;5.808;2023-12-04T17:21:35;10.65;;;3.30;;
62582;SDS011;48641;51.676;5.808;2023-12-04T17:24:01;10.02;;;3.10;;
62582;SDS011;48641;51.676;5.808;2023-12-04T17:26:27;7.88;;;2.88;;
62582;SDS011;48641;51.676;5.808;2023-12-04T17:28:52;8.43;;;3.83;;
62582;SDS011;48641;51.676;5.808;2023-12-04T17:31:18;7.50;;;3.03;;
62582;SDS011;48641;51.676;5.808;2023-12-04T17:33:43;9.10;;;3.17;;
62582;SDS011;48641;51.676;5.808;2023-12-04T17:36:09;8.77;;;3.20;;
62582;SDS011;48641;51.676;5.808;2023-12-04T17:38:35;7.35;;;2.80;;
62582;SDS011;48641;51.676;5.808;2023-12-04T17:41:01;8.95;;;2.90;;
62582;SDS011;48641;51.676;5.808;2023-12-04T17:43:27;9.25;;;2.80;;
62582;SDS011;48641;51.676;5.808;2023-12-04T17:45:54;7.60;;;2.72;;
62582;SDS011;48641;51.676;5.808;2023-12-04T17:48:21;8.40;;;3.03;;
62582;SDS011;48641;51.676;5.808;2023-12-04T17:50:47;7.25;;;2.83;;
62582;SDS011;48641;51.676;5.808;2023-12-04T17:53:12;8.43;;;3.10;;
62582;SDS011;48641;51.676;5.808;2023-12-04T17:55:38;7.57;;;2.85;;
62582;SDS011;48641;51.676;5.808;2023-12-04T17:58:03;7.47;;;2.95;;
62582;SDS011;48641;51.676;5.808;2023-12-04T18:00:29;6.93;;;2.80;;
62582;SDS011;48641;51.676;5.808;2023-12-04T18:02:55;6.53;;;2.50;;
62582;SDS011;48641;51.676;5.808;2023-12-04T18:05:21;7.43;;;2.60;;
62582;SDS011;48641;51.676;5.808;2023-12-04T18:07:48;6.13;;;2.40;;
62582;SDS011;48641;51.676;5.808;2023-12-04T18:10:14;6.65;;;2.55;;
62582;SDS011;48641;51.676;5.808;2023-12-04T18:12:40;7.03;;;2.22;;
62582;SDS011;48641;51.676;5.808;2023-12-04T18:15:07;7.15;;;2.63;;
62582;SDS011;48641;51.676;5.808;2023-12-04T18:17:34;7.05;;;3.00;;
62582;SDS011;48641;51.676;5.808;2023-12-04T18:20:06;7.70;;;2.75;;
62582;SDS011;48641;51.676;5.808;2023-12-04T18:22:33;6.55;;;2.60;;
62582;SDS011;48641;51.676;5.808;2023-12-04T18:24:59;7.20;;;2.50;;
62582;SDS011;48641;51.676;5.808;2023-12-04T18:27:27;7.80;;;2.67;;
62582;SDS011;48641;51.676;5.808;2023-12-04T18:29:53;7.32;;;2.60;;
62582;SDS011;48641;51.676;5.808;2023-12-04T18:32:19;6.82;;;2.50;;
62582;SDS011;48641;51.676;5.808;2023-12-04T18:34:45;6.72;;;2.50;;
62582;SDS011;48641;51.676;5.808;2023-12-04T18:37:15;6.18;;;2.45;;
62582;SDS011;48641;51.676;5.808;2023-12-04T18:39:45;6.75;;;2.47;;
62582;SDS011;48641;51.676;5.808;2023-12-04T18:42:12;6.25;;;2.38;;
62582;SDS011;48641;51.676;5.808;2023-12-04T18:44:37;6.93;;;2.58;;
62582;SDS011;48641;51.676;5.808;2023-12-04T18:47:04;6.05;;;2.63;;
62582;SDS011;48641;51.676;5.808;2023-12-04T18:49:32;7.13;;;2.55;;
62582;SDS011;48641;51.676;5.808;2023-12-04T18:52:02;6.95;;;2.42;;
62582;SDS011;48641;51.676;5.808;2023-12-04T18:54:28;5.55;;;2.28;;
62582;SDS011;48641;51.676;5.808;2023-12-04T18:56:54;6.65;;;2.42;;
62582;SDS011;48641;51.676;5.808;2023-12-04T18:59:19;6.47;;;2.53;;
62582;SDS011;48641;51.676;5.808;2023-12-04T19:01:47;6.05;;;2.30;;